createdAt,value
2023-02-18T00:01:41.278Z,36.22
2023-02-18T00:04:07.487Z,40.33
2023-02-18T00:06:33.623Z,37.33
2023-02-18T00:09:01.986Z,38.38
2023-02-18T00:11:27.101Z,40.58
2023-02-18T00:13:52.697Z,35.75
2023-02-18T00:16:17.742Z,34.90
2023-02-18T00:18:42.182Z,36.13
2023-02-18T00:21:10.497Z,34.08
2023-02-18T00:23:35.596Z,34.42
2023-02-18T00:26:04.377Z,35.50
2023-02-18T00:28:29.563Z,33.25
2023-02-18T00:30:53.962Z,33.47
2023-02-18T00:33:18.570Z,30.42
2023-02-18T00:35:42.903Z,31.08
2023-02-18T00:38:10.663Z,31.70
2023-02-18T00:40:38.872Z,32.85
2023-02-18T00:43:03.300Z,30.88
2023-02-18T00:45:29.567Z,30.35
2023-02-18T00:47:54.214Z,35.08
2023-02-18T00:50:18.758Z,34.33
2023-02-18T00:52:43.163Z,37.85
2023-02-18T00:55:09.357Z,36.63
2023-02-18T00:57:33.858Z,37.45
2023-02-18T00:59:58.226Z,30.70
2023-02-18T01:02:22.858Z,30.08
2023-02-18T01:04:47.208Z,34.85
2023-02-18T01:07:12.065Z,33.33
2023-02-18T01:09:36.401Z,32.65
2023-02-18T01:12:02.225Z,32.67
2023-02-18T01:14:26.529Z,32.58
2023-02-18T01:16:52.443Z,31.08
2023-02-18T01:19:16.833Z,31.52
2023-02-18T01:21:41.264Z,35.85
2023-02-18T01:24:06.595Z,30.65
2023-02-18T01:26:32.926Z,35.38
2023-02-18T01:28:59.180Z,30.20
2023-02-18T01:31:23.648Z,30.63
2023-02-18T01:33:48.831Z,34.13
2023-02-18T01:36:13.666Z,31.23
2023-02-18T01:38:38.652Z,34.15
2023-02-18T01:41:03.121Z,33.17
2023-02-18T01:43:28.069Z,33.20
2023-02-18T01:46:13.643Z,35.03
2023-02-18T01:48:42.250Z,28.40
2023-02-18T01:51:11.675Z,30.05
2023-02-18T01:53:40.645Z,33.03
2023-02-18T01:56:08.434Z,31.23
2023-02-18T01:58:33.827Z,33.55
2023-02-18T02:00:59.166Z,31.30
2023-02-18T02:03:25.599Z,29.13
2023-02-18T02:05:50.008Z,32.40
2023-02-18T02:08:14.676Z,36.22
2023-02-18T02:10:53.082Z,31.15
2023-02-18T02:13:25.171Z,33.03
2023-02-18T02:16:16.648Z,33.90
2023-02-18T02:18:57.367Z,37.78
2023-02-18T02:22:06.168Z,42.08
2023-02-18T02:24:55.087Z,36.67
2023-02-18T02:27:25.532Z,34.47
2023-02-18T02:30:32.544Z,41.47
2023-02-18T02:33:24.779Z,40.22
2023-02-18T02:35:57.511Z,38.65
2023-02-18T02:38:30.703Z,36.53
2023-02-18T02:41:03.961Z,41.22
2023-02-18T02:43:40.018Z,42.15
2023-02-18T02:46:08.342Z,39.28
2023-02-18T02:48:40.332Z,42.35
2023-02-18T02:51:11.960Z,41.90
2023-02-18T02:53:38.341Z,38.75
2023-02-18T02:56:02.702Z,39.85
2023-02-18T02:58:28.319Z,43.00
2023-02-18T03:01:07.766Z,44.40
2023-02-18T03:03:48.698Z,46.55
2023-02-18T03:06:33.352Z,46.47
2023-02-18T03:09:08.435Z,52.42
2023-02-18T03:11:38.822Z,48.38
2023-02-18T03:14:12.123Z,51.55
2023-02-18T03:16:46.081Z,46.95
2023-02-18T03:19:19.366Z,46.45
2023-02-18T03:21:49.114Z,47.90
2023-02-18T03:24:17.941Z,47.60
2023-02-18T03:26:46.788Z,55.65
2023-02-18T03:29:14.817Z,52.25
2023-02-18T03:31:43.964Z,51.83
2023-02-18T03:34:13.656Z,53.80
2023-02-18T03:36:41.613Z,63.22
2023-02-18T03:39:10.672Z,54.40
2023-02-18T03:41:35.769Z,58.43
2023-02-18T03:44:02.736Z,60.38
2023-02-18T03:46:27.596Z,58.50
2023-02-18T03:48:52.094Z,62.67
2023-02-18T03:51:19.674Z,62.08
2023-02-18T03:53:44.020Z,64.03
2023-02-18T03:56:11.604Z,62.40
2023-02-18T03:58:35.927Z,67.30
2023-02-18T04:01:00.395Z,60.60
2023-02-18T04:03:24.751Z,68.13
2023-02-18T04:05:49.276Z,62.90
2023-02-18T04:08:13.676Z,67.18
2023-02-18T04:10:38.041Z,74.22
2023-02-18T04:13:03.791Z,60.90
2023-02-18T04:15:30.509Z,63.38
2023-02-18T04:17:54.825Z,67.75
2023-02-18T04:20:19.511Z,63.42
2023-02-18T04:22:44.394Z,64.85
2023-02-18T04:25:09.601Z,62.40
2023-02-18T04:27:33.847Z,62.35
2023-02-18T04:29:59.776Z,60.70
2023-02-18T04:32:24.073Z,65.95
2023-02-18T04:34:48.404Z,57.03
2023-02-18T04:37:12.812Z,65.72
2023-02-18T04:39:37.161Z,57.35
2023-02-18T04:42:01.537Z,59.15
2023-02-18T04:44:25.860Z,61.80
2023-02-18T04:46:51.861Z,62.40
2023-02-18T04:49:16.202Z,60.92
2023-02-18T04:51:40.641Z,56.95
2023-02-18T04:54:05.291Z,59.70
2023-02-18T04:56:30.011Z,63.30
2023-02-18T04:58:54.366Z,67.47
2023-02-18T05:01:18.880Z,59.05
2023-02-18T05:03:46.076Z,60.03
2023-02-18T05:06:10.784Z,55.58
2023-02-18T05:08:35.341Z,59.53
2023-02-18T05:10:59.820Z,57.42
2023-02-18T05:13:24.192Z,61.00
2023-02-18T05:15:48.745Z,59.55
2023-02-18T05:18:13.367Z,55.08
2023-02-18T05:20:39.093Z,57.35
2023-02-18T05:23:03.505Z,58.85
2023-02-18T05:25:27.972Z,52.90
2023-02-18T05:27:52.375Z,58.22
2023-02-18T05:30:16.998Z,59.40
2023-02-18T05:32:41.419Z,53.05
2023-02-18T05:35:06.731Z,54.03
2023-02-18T05:37:32.644Z,58.20
2023-02-18T05:39:57.175Z,53.50
2023-02-18T05:42:23.444Z,59.22
2023-02-18T05:44:47.979Z,49.72
2023-02-18T05:47:13.696Z,56.95
2023-02-18T05:49:38.492Z,53.53
2023-02-18T05:52:03.251Z,53.53
2023-02-18T05:54:29.768Z,57.35
2023-02-18T05:56:54.749Z,52.03
2023-02-18T05:59:19.643Z,50.97
2023-02-18T06:01:44.131Z,49.65
2023-02-18T06:04:08.561Z,51.85
2023-02-18T06:06:33.888Z,53.60
2023-02-18T06:08:59.258Z,58.00
2023-02-18T06:11:25.461Z,55.45
2023-02-18T06:13:49.759Z,53.38
2023-02-18T06:16:14.259Z,49.42
2023-02-18T06:18:38.693Z,52.13
2023-02-18T06:21:03.199Z,55.78
2023-02-18T06:23:30.106Z,51.08
2023-02-18T06:25:54.713Z,51.22
2023-02-18T06:28:20.597Z,54.80
2023-02-18T06:30:45.944Z,51.10
2023-02-18T06:33:10.260Z,54.53
2023-02-18T06:35:35.121Z,54.80
2023-02-18T06:37:59.444Z,47.60
2023-02-18T06:40:23.875Z,52.97
2023-02-18T06:42:48.173Z,43.13
2023-02-18T06:45:13.937Z,50.08
2023-02-18T06:47:38.490Z,48.92
2023-02-18T06:50:02.893Z,49.35
2023-02-18T06:52:28.069Z,48.15
2023-02-18T06:54:52.589Z,44.20
2023-02-18T06:57:16.947Z,46.95
2023-02-18T06:59:41.394Z,50.45
2023-02-18T07:02:07.157Z,46.20
2023-02-18T07:04:33.022Z,53.88
2023-02-18T07:06:57.537Z,60.95
2023-02-18T07:09:22.005Z,54.70
2023-02-18T07:11:46.271Z,44.78
2023-02-18T07:14:10.897Z,50.35
2023-02-18T07:16:35.249Z,48.75
2023-02-18T07:19:01.057Z,46.50
2023-02-18T07:21:25.651Z,44.92
2023-02-18T07:23:50.108Z,42.80
2023-02-18T07:26:15.585Z,42.97
2023-02-18T07:28:40.510Z,42.13
2023-02-18T07:31:05.368Z,46.30
2023-02-18T07:33:30.001Z,50.25
2023-02-18T07:36:00.479Z,49.38
2023-02-18T07:38:25.770Z,47.95
2023-02-18T07:40:50.167Z,41.97
2023-02-18T07:43:14.526Z,43.63
2023-02-18T07:45:39.958Z,45.00
2023-02-18T07:48:04.507Z,41.42
2023-02-18T07:50:29.052Z,41.70
2023-02-18T07:52:54.874Z,38.40
2023-02-18T07:55:19.407Z,39.67
2023-02-18T08:02:38.180Z,31.40
2023-02-18T08:05:02.500Z,37.35
2023-02-18T08:07:27.199Z,37.05
2023-02-18T08:09:51.727Z,33.10
2023-02-18T08:12:16.082Z,33.03
2023-02-18T08:14:42.488Z,35.80
2023-02-18T08:17:08.218Z,37.28
2023-02-18T08:19:32.885Z,40.08
2023-02-18T08:21:57.232Z,43.13
2023-02-18T08:24:22.564Z,37.40
2023-02-18T08:26:59.855Z,34.50
2023-02-18T08:29:25.427Z,36.88
2023-02-18T08:31:49.889Z,36.92
2023-02-18T08:34:15.738Z,43.35
2023-02-18T08:36:40.005Z,41.28
2023-02-18T08:39:04.749Z,42.83
2023-02-18T08:41:29.047Z,46.50
2023-02-18T08:43:53.475Z,39.42
2023-02-18T08:46:33.401Z,36.50
2023-02-18T08:49:01.064Z,33.75
2023-02-18T08:51:26.955Z,34.33
2023-02-18T08:53:51.446Z,36.03
2023-02-18T08:56:17.239Z,34.38
2023-02-18T08:58:42.064Z,31.50
2023-02-18T09:01:08.903Z,35.83
2023-02-18T09:03:33.492Z,31.00
2023-02-18T09:05:58.702Z,32.90
2023-02-18T09:08:24.540Z,33.10
2023-02-18T09:10:50.312Z,36.35
2023-02-18T09:13:14.662Z,42.90
2023-02-18T09:15:39.115Z,37.75
2023-02-18T09:18:03.487Z,36.13
2023-02-18T09:20:28.842Z,37.20
2023-02-18T09:22:53.290Z,36.20
2023-02-18T09:25:20.721Z,37.13
2023-02-18T09:27:45.043Z,33.60
2023-02-18T09:30:10.553Z,33.45
2023-02-18T09:32:35.574Z,32.33
2023-02-18T09:35:00.157Z,33.40
2023-02-18T09:37:24.401Z,37.50
2023-02-18T09:39:49.660Z,34.15
2023-02-18T09:42:19.769Z,37.55
2023-02-18T09:44:46.801Z,43.55
2023-02-18T09:47:15.070Z,40.92
2023-02-18T09:49:42.529Z,34.53
2023-02-18T09:52:13.375Z,41.55
2023-02-18T09:54:37.838Z,48.65
2023-02-18T09:57:03.073Z,35.50
2023-02-18T09:59:29.867Z,33.38
2023-02-18T10:01:57.188Z,36.67
2023-02-18T10:04:24.301Z,35.08
2023-02-18T10:06:50.110Z,52.58
2023-02-18T10:09:21.963Z,37.47
2023-02-18T10:11:49.760Z,35.22
2023-02-18T10:14:16.212Z,38.85
2023-02-18T10:16:42.697Z,45.90
2023-02-18T10:19:17.491Z,37.17
2023-02-18T10:21:42.194Z,38.15
2023-02-18T10:24:14.304Z,39.05
2023-02-18T10:26:40.580Z,37.90
2023-02-18T10:29:05.310Z,35.55
2023-02-18T10:31:35.394Z,39.67
2023-02-18T10:34:08.397Z,32.85
2023-02-18T10:36:39.250Z,33.15
2023-02-18T10:39:45.647Z,33.88
2023-02-18T10:42:22.259Z,35.78
2023-02-18T10:44:57.711Z,29.58
2023-02-18T10:47:34.522Z,31.45
2023-02-18T10:50:03.523Z,34.25
2023-02-18T10:52:31.653Z,40.40
2023-02-18T10:55:04.513Z,36.65
2023-02-18T10:57:29.311Z,36.55
2023-02-18T11:00:00.179Z,25.45
2023-02-18T11:02:30.985Z,39.67
2023-02-18T11:05:02.026Z,37.30
2023-02-18T11:07:34.256Z,32.38
2023-02-18T11:10:18.170Z,36.90
2023-02-18T11:12:47.618Z,33.17
2023-02-18T11:15:20.874Z,37.45
2023-02-18T11:17:47.066Z,31.35
2023-02-18T11:20:31.367Z,33.38
2023-02-18T11:23:00.067Z,32.65
2023-02-18T11:25:26.773Z,35.30
2023-02-18T11:27:53.785Z,70.53
2023-02-18T11:30:24.072Z,28.20
2023-02-18T11:32:50.899Z,28.27
2023-02-18T11:35:33.315Z,34.95
2023-02-18T11:38:00.020Z,28.88
2023-02-18T11:40:27.662Z,30.58
2023-02-18T11:42:52.149Z,37.72
2023-02-18T11:45:29.546Z,27.63
2023-02-18T11:48:01.373Z,30.40
2023-02-18T11:50:27.545Z,29.88
2023-02-18T11:52:53.997Z,28.77
2023-02-18T11:55:21.055Z,27.95
2023-02-18T11:57:49.315Z,23.60
2023-02-18T12:00:20.941Z,26.52
2023-02-18T12:02:45.564Z,31.80
2023-02-18T12:05:15.946Z,43.55
2023-02-18T12:07:45.966Z,26.40
2023-02-18T12:10:15.567Z,36.55
2023-02-18T12:12:47.090Z,26.63
2023-02-18T12:15:17.630Z,25.52
2023-02-18T12:20:31.026Z,25.73
2023-02-18T12:23:04.289Z,27.55
2023-02-18T12:25:40.149Z,25.52
2023-02-18T12:28:26.300Z,27.42
2023-02-18T12:31:12.418Z,28.05
2023-02-18T12:33:45.739Z,29.38
2023-02-18T12:36:20.867Z,25.60
2023-02-18T12:39:17.987Z,28.15
2023-02-18T12:42:01.453Z,29.15
2023-02-18T12:44:45.401Z,30.67
2023-02-18T12:47:31.695Z,26.95
2023-02-18T12:50:26.371Z,25.60
2023-02-18T12:53:03.769Z,32.03
2023-02-18T12:55:40.334Z,18.40
2023-02-18T12:58:17.842Z,21.48
2023-02-18T13:01:12.208Z,25.48
2023-02-18T13:04:04.785Z,22.08
2023-02-18T13:06:43.775Z,25.35
2023-02-18T13:09:18.862Z,30.35
2023-02-18T13:11:51.734Z,20.35
2023-02-18T13:14:22.247Z,25.13
2023-02-18T13:16:52.864Z,26.33
2023-02-18T13:19:23.960Z,22.13
2023-02-18T13:21:52.405Z,21.63
2023-02-18T13:24:24.306Z,24.55
2023-02-18T13:26:52.422Z,25.13
2023-02-18T13:29:28.158Z,22.08
2023-02-18T13:32:03.408Z,23.80
2023-02-18T13:34:33.783Z,24.73
2023-02-18T13:37:08.051Z,42.70
2023-02-18T13:39:33.764Z,24.10
2023-02-18T13:42:25.810Z,22.63
2023-02-18T13:45:31.454Z,20.65
2023-02-18T13:47:56.913Z,26.60
2023-02-18T13:50:32.226Z,23.98
2023-02-18T13:53:15.005Z,27.17
2023-02-18T13:55:43.473Z,61.30
2023-02-18T13:58:17.607Z,19.33
2023-02-18T14:00:50.984Z,20.20
2023-02-18T14:03:33.450Z,20.02
2023-02-18T14:05:58.420Z,19.23
2023-02-18T14:08:34.689Z,16.60
2023-02-18T14:11:34.000Z,20.27
2023-02-18T14:14:17.873Z,17.75
2023-02-18T14:17:30.960Z,32.58
2023-02-18T14:19:56.336Z,14.90
2023-02-18T14:22:29.982Z,15.52
2023-02-18T14:25:02.274Z,12.13
2023-02-18T14:27:27.674Z,13.95
2023-02-18T14:29:54.409Z,21.58
2023-02-18T14:32:22.170Z,17.42
2023-02-18T14:35:14.441Z,23.77
2023-02-18T14:38:06.622Z,19.13
2023-02-18T14:40:59.084Z,20.77
2023-02-18T14:43:41.213Z,12.15
2023-02-18T14:46:18.111Z,13.57
2023-02-18T14:49:12.681Z,20.55
2023-02-18T14:51:37.742Z,16.63
2023-02-18T14:54:06.899Z,27.52
2023-02-18T14:56:31.488Z,16.50
2023-02-18T14:59:01.083Z,11.93
2023-02-18T15:01:30.545Z,13.70
2023-02-18T15:03:57.586Z,16.83
2023-02-18T15:06:27.452Z,18.00
2023-02-18T15:08:53.041Z,11.68
2023-02-18T15:11:18.450Z,14.77
2023-02-18T15:13:45.361Z,14.77
2023-02-18T15:16:15.156Z,16.63
2023-02-18T15:18:42.439Z,15.45
2023-02-18T15:21:10.395Z,15.00
2023-02-18T15:23:38.308Z,14.50
2023-02-18T15:26:02.888Z,16.58
2023-02-18T15:28:30.099Z,13.35
2023-02-18T15:30:54.836Z,19.50
2023-02-18T15:33:24.034Z,15.35
2023-02-18T15:35:49.004Z,14.17
2023-02-18T15:38:18.654Z,17.52
2023-02-18T15:40:43.496Z,21.25
2023-02-18T15:43:08.946Z,17.75
2023-02-18T15:45:36.375Z,18.35
2023-02-18T15:48:02.000Z,14.98
2023-02-18T15:50:28.614Z,16.25
2023-02-18T15:52:54.727Z,20.10
2023-02-18T15:55:28.341Z,17.13
2023-02-18T15:57:54.530Z,16.38
2023-02-18T16:00:22.278Z,17.17
2023-02-18T16:02:55.893Z,20.98
2023-02-18T16:05:32.235Z,16.85
2023-02-18T16:08:01.941Z,19.85
2023-02-18T16:10:45.045Z,17.60
2023-02-18T16:13:09.597Z,19.20
2023-02-18T16:15:40.536Z,21.05
2023-02-18T16:18:07.148Z,20.05
2023-02-18T16:20:36.067Z,19.50
2023-02-18T16:23:11.711Z,16.33
2023-02-18T16:25:44.062Z,15.95
2023-02-18T16:28:16.444Z,25.90
2023-02-18T16:30:42.145Z,18.60
2023-02-18T16:33:06.561Z,26.42
2023-02-18T16:35:43.943Z,20.40
2023-02-18T16:38:18.758Z,19.48
2023-02-18T16:40:44.724Z,18.38
2023-02-18T16:43:15.739Z,18.83
2023-02-18T16:45:43.931Z,26.52
2023-02-18T16:48:12.805Z,20.90
2023-02-18T16:50:37.285Z,24.17
2023-02-18T16:53:02.654Z,17.77
2023-02-18T16:55:29.744Z,19.33
2023-02-18T16:57:56.182Z,23.00
2023-02-18T17:00:21.288Z,21.98
2023-02-18T17:02:47.159Z,25.15
2023-02-18T17:05:26.420Z,21.23
2023-02-18T17:07:51.731Z,27.70
2023-02-18T17:10:16.717Z,24.88
2023-02-18T17:12:43.678Z,28.85
2023-02-18T17:15:15.641Z,23.60
2023-02-18T17:17:40.034Z,21.50
2023-02-18T17:20:04.793Z,25.60
2023-02-18T17:22:29.501Z,12.68
2023-02-18T17:24:53.896Z,26.02
2023-02-18T17:27:21.161Z,21.67
2023-02-18T17:29:45.660Z,23.08
2023-02-18T17:32:14.481Z,22.15
2023-02-18T17:34:41.103Z,31.65
2023-02-18T17:37:05.669Z,24.08
2023-02-18T17:39:31.418Z,22.58
2023-02-18T17:41:55.947Z,18.58
2023-02-18T17:44:22.085Z,22.27
2023-02-18T17:46:46.812Z,23.88
2023-02-18T17:49:12.615Z,23.55
2023-02-18T17:51:38.496Z,20.98
2023-02-18T17:54:02.968Z,21.63
2023-02-18T17:56:27.549Z,21.20
2023-02-18T17:58:51.977Z,23.80
2023-02-18T18:01:17.242Z,22.92
2023-02-18T18:03:41.743Z,21.52
2023-02-18T18:06:15.525Z,20.73
2023-02-18T18:08:40.113Z,21.30
2023-02-18T18:11:06.002Z,21.85
2023-02-18T18:13:32.424Z,19.88
2023-02-18T18:15:58.142Z,22.23
2023-02-18T18:18:22.709Z,22.88
2023-02-18T18:20:49.790Z,21.83
2023-02-18T18:23:18.176Z,23.52
2023-02-18T18:25:45.483Z,27.42
2023-02-18T18:28:10.540Z,22.95
2023-02-18T18:30:36.887Z,20.58
2023-02-18T18:33:01.377Z,20.85
2023-02-18T18:35:28.699Z,21.73
2023-02-18T18:37:53.992Z,25.83
2023-02-18T18:40:21.312Z,22.52
2023-02-18T18:42:45.664Z,20.35
2023-02-18T18:45:19.665Z,20.33
2023-02-18T18:47:44.274Z,26.27
2023-02-18T18:50:09.556Z,18.05
2023-02-18T18:52:34.218Z,24.55
2023-02-18T18:54:58.560Z,19.75
2023-02-18T18:57:24.324Z,18.65
2023-02-18T18:59:48.641Z,25.30
2023-02-18T19:02:16.922Z,22.17
2023-02-18T19:04:41.345Z,22.00
2023-02-18T19:07:05.788Z,18.75
2023-02-18T19:09:30.223Z,22.05
2023-02-18T19:11:54.683Z,21.73
2023-02-18T19:14:22.086Z,21.40
2023-02-18T19:16:46.823Z,21.35
2023-02-18T19:19:12.504Z,20.67
2023-02-18T19:21:37.345Z,19.75
2023-02-18T19:24:01.756Z,20.35
2023-02-18T19:26:26.283Z,23.13
2023-02-18T19:28:50.630Z,20.98
2023-02-18T19:31:16.724Z,21.05
2023-02-18T19:33:41.269Z,19.83
2023-02-18T19:36:08.851Z,18.25
2023-02-18T19:38:33.821Z,20.58
2023-02-18T19:40:58.373Z,22.95
2023-02-18T19:43:22.765Z,19.65
2023-02-18T19:45:48.892Z,19.38
2023-02-18T19:48:15.918Z,18.33
2023-02-18T19:50:42.261Z,24.25
2023-02-18T19:53:06.684Z,18.98
2023-02-18T19:55:31.200Z,20.98
2023-02-18T19:57:55.728Z,19.50
2023-02-18T20:00:22.342Z,23.90
2023-02-18T20:02:47.341Z,22.92
2023-02-18T20:05:14.453Z,21.50
2023-02-18T20:07:39.026Z,17.73
2023-02-18T20:10:03.871Z,18.27
2023-02-18T20:12:28.501Z,15.68
2023-02-18T20:14:53.105Z,17.85
2023-02-18T20:17:18.283Z,15.55
2023-02-18T20:19:42.687Z,18.98
2023-02-18T20:22:10.321Z,16.98
2023-02-18T20:24:35.183Z,19.35
2023-02-18T20:27:02.570Z,17.95
2023-02-18T20:29:29.039Z,16.92
2023-02-18T20:31:54.440Z,16.52
2023-02-18T20:34:19.334Z,17.02
2023-02-18T20:36:45.437Z,16.48
2023-02-18T20:39:16.187Z,15.55
2023-02-18T20:41:41.274Z,17.20
2023-02-18T20:44:05.905Z,15.85
2023-02-18T20:46:30.752Z,15.07
2023-02-18T20:48:55.661Z,17.33
2023-02-18T20:51:22.271Z,20.95
2023-02-18T20:53:47.963Z,18.23
2023-02-18T20:56:14.061Z,17.73
2023-02-18T20:58:38.627Z,16.58
2023-02-18T21:01:04.827Z,19.42
2023-02-18T21:03:29.776Z,16.60
2023-02-18T21:06:01.072Z,17.05
2023-02-18T21:08:26.363Z,16.65
2023-02-18T21:10:52.752Z,19.65
2023-02-18T21:13:19.107Z,15.60
2023-02-18T21:15:43.562Z,18.45
2023-02-18T21:18:08.034Z,19.75
2023-02-18T21:20:32.683Z,23.45
2023-02-18T21:22:57.286Z,17.77
2023-02-18T21:25:22.092Z,18.88
2023-02-18T21:27:46.615Z,19.40
2023-02-18T21:30:13.504Z,15.30
2023-02-18T21:32:38.033Z,18.02
2023-02-18T21:35:02.424Z,19.25
2023-02-18T21:37:27.056Z,16.27
2023-02-18T21:39:51.426Z,17.30
2023-02-18T21:42:15.839Z,18.65
2023-02-18T21:44:42.588Z,19.67
2023-02-18T21:47:08.823Z,21.10
2023-02-18T21:49:33.286Z,15.07
2023-02-18T21:51:58.181Z,22.67
2023-02-18T21:54:24.657Z,20.63
2023-02-18T21:56:49.511Z,17.98
2023-02-18T21:59:13.939Z,20.05
2023-02-18T22:01:38.430Z,18.27
2023-02-18T22:04:04.439Z,18.13
2023-02-18T22:06:28.835Z,17.80
2023-02-18T22:08:53.264Z,19.45
2023-02-18T22:11:18.864Z,18.45
2023-02-18T22:13:45.412Z,18.33
2023-02-18T22:16:09.794Z,32.97
2023-02-18T22:18:34.914Z,18.88
2023-02-18T22:21:01.012Z,15.73
2023-02-18T22:23:25.633Z,19.65
2023-02-18T22:25:52.212Z,17.90
2023-02-18T22:28:19.500Z,19.02
2023-02-18T22:30:43.967Z,22.55
2023-02-18T22:33:08.464Z,16.13
2023-02-18T22:35:33.714Z,19.70
2023-02-18T22:37:59.849Z,21.02
2023-02-18T22:40:24.498Z,19.42
2023-02-18T22:42:48.853Z,21.13
2023-02-18T22:45:13.318Z,20.88
2023-02-18T22:47:37.661Z,21.70
2023-02-18T22:50:02.059Z,25.42
2023-02-18T22:52:27.564Z,25.48
2023-02-18T22:54:54.999Z,28.27
2023-02-18T22:57:19.646Z,26.48
2023-02-18T22:59:44.024Z,23.88
2023-02-18T23:02:08.407Z,23.70
2023-02-18T23:04:33.059Z,25.02
2023-02-18T23:06:57.479Z,25.63
2023-02-18T23:09:24.356Z,21.85
2023-02-18T23:11:53.032Z,22.45
2023-02-18T23:14:21.508Z,22.13
2023-02-18T23:17:04.383Z,21.58
2023-02-18T23:19:31.794Z,20.20
2023-02-18T23:21:56.366Z,21.85
2023-02-18T23:24:22.806Z,20.05
2023-02-18T23:26:47.794Z,22.60
2023-02-18T23:29:13.817Z,21.27
2023-02-18T23:31:38.724Z,24.40
2023-02-18T23:34:03.335Z,22.38
2023-02-18T23:36:29.778Z,20.42
2023-02-18T23:38:56.085Z,22.85
2023-02-18T23:41:21.235Z,26.65
2023-02-18T23:43:45.922Z,25.73
2023-02-18T23:46:12.006Z,23.52
2023-02-18T23:48:39.529Z,24.42
2023-02-18T23:51:07.329Z,22.60
2023-02-18T23:53:33.689Z,24.15
2023-02-18T23:56:07.502Z,22.13
2023-02-18T23:58:32.044Z,23.48
